Time;durP1;ratioP1;P1;durP2;ratioP2;P2;SDS_P1;SDS_P2;PMS_P1;PMS_P2;Temp;Humidity;BMP_temperature;BMP_pressure;BME280_temperature;BME280_humidity;BME280_pressure;Samples;Min_cycle;Max_cycle;Signal;HPM_P1;HPM_P2
2022/09/13 00:00:43;;;;;;;8.57;5.15;;;15.20;99.90;;;;;;5029225;28;20064;-81
2022/09/13 00:03:11;;;;;;;6.65;4.70;;;15.10;99.90;;;;;;5043811;28;20021;-79
2022/09/13 00:05:38;;;;;;;9.00;5.75;;;15.10;99.90;;;;;;5035638;28;20451;-80
2022/09/13 00:08:05;;;;;;;23.05;10.73;;;15.10;99.90;;;;;;5048073;28;20077;-81
2022/09/13 00:10:34;;;;;;;30.85;16.35;;;15.10;99.90;;;;;;5040786;28;20022;-80
2022/09/13 00:13:00;;;;;;;17.15;10.85;;;15.10;99.90;;;;;;5048341;28;20045;-81
2022/09/13 00:15:27;;;;;;;16.25;8.82;;;15.00;99.90;;;;;;5041560;28;20030;-81
2022/09/13 00:17:52;;;;;;;9.02;6.18;;;15.00;99.90;;;;;;5030644;28;20049;-81
2022/09/13 00:20:18;;;;;;;12.07;6.90;;;15.00;99.90;;;;;;5034628;28;20065;-81
2022/09/13 00:22:44;;;;;;;10.45;6.82;;;14.90;99.90;;;;;;5032721;28;20033;-81
2022/09/13 00:25:10;;;;;;;11.77;7.70;;;14.90;99.90;;;;;;5045057;28;20030;-80
2022/09/13 00:27:36;;;;;;;12.55;8.00;;;14.80;99.90;;;;;;5044346;28;20029;-80
2022/09/13 00:30:06;;;;;;;13.82;8.73;;;14.80;99.90;;;;;;5033003;28;20033;-80
2022/09/13 00:32:36;;;;;;;14.90;9.05;;;14.70;99.90;;;;;;5021795;28;20464;-81
2022/09/13 00:35:03;;;;;;;13.25;8.55;;;14.70;99.90;;;;;;5000943;28;20030;-81
2022/09/13 00:37:29;;;;;;;22.20;10.60;;;14.60;99.90;;;;;;4999876;28;20378;-81
2022/09/13 00:39:55;;;;;;;14.57;10.68;;;14.60;99.90;;;;;;5003958;28;20031;-78
2022/09/13 00:42:39;;;;;;;19.38;11.40;;;14.60;99.90;;;;;;5044415;28;20029;-80
2022/09/13 00:45:11;;;;;;;19.27;10.68;;;14.50;99.90;;;;;;5037756;28;20124;-79
2022/09/13 00:47:54;;;;;;;18.35;10.13;;;14.50;99.90;;;;;;5043221;28;20032;-80
2022/09/13 00:50:37;;;;;;;16.00;10.68;;;14.50;99.90;;;;;;5046276;28;20025;-79
2022/09/13 00:53:11;;;;;;;17.35;10.82;;;14.50;99.90;;;;;;5040356;28;20065;-80
2022/09/13 00:55:42;;;;;;;19.08;10.88;;;14.50;99.90;;;;;;5050830;28;20033;-80
2022/09/13 00:58:16;;;;;;;17.48;10.98;;;14.40;99.90;;;;;;5052086;28;20046;-79
2022/09/13 01:00:43;;;;;;;15.77;10.27;;;14.40;99.90;;;;;;5047663;28;20033;-79
2022/09/13 01:03:12;;;;;;;16.15;10.65;;;14.40;99.90;;;;;;5038192;28;20080;-81
2022/09/13 01:05:45;;;;;;;21.67;10.02;;;14.40;99.90;;;;;;5027856;28;20046;-80
2022/09/13 01:08:21;;;;;;;16.80;10.38;;;14.30;99.90;;;;;;4998097;28;20038;-81
2022/09/13 01:10:49;;;;;;;16.40;9.98;;;14.30;99.90;;;;;;5006688;28;20129;-81
2022/09/13 01:13:18;;;;;;;17.80;10.13;;;14.30;99.90;;;;;;5030508;28;20026;-84
2022/09/13 01:15:45;;;;;;;15.50;9.70;;;14.20;99.90;;;;;;5033782;28;20477;-80
2022/09/13 01:18:11;;;;;;;16.88;9.55;;;14.20;99.90;;;;;;5027117;28;20116;-81
2022/09/13 01:20:51;;;;;;;19.33;9.95;;;14.10;99.90;;;;;;5026643;28;20041;-80
2022/09/13 01:23:25;;;;;;;16.60;9.45;;;14.10;99.90;;;;;;5023712;28;20120;-80
2022/09/13 01:26:23;;;;;;;14.18;9.70;;;14.10;99.90;;;;;;5033898;28;20026;-80
2022/09/13 01:29:16;;;;;;;15.45;10.52;;;14.20;99.90;;;;;;5030854;28;20037;-80
2022/09/13 01:32:06;;;;;;;16.75;10.75;;;14.10;99.90;;;;;;5026577;28;20030;-81
2022/09/13 01:34:51;;;;;;;16.83;9.18;;;14.10;99.90;;;;;;5022408;28;20095;-80
2022/09/13 01:37:37;;;;;;;17.83;10.35;;;14.00;99.90;;;;;;5006991;28;20034;-81
2022/09/13 01:40:08;;;;;;;12.48;9.30;;;14.00;99.90;;;;;;5031022;28;20033;-81
2022/09/13 01:42:43;;;;;;;18.25;10.52;;;14.00;99.90;;;;;;5014557;28;20429;-81
2022/09/13 01:45:45;;;;;;;14.57;9.63;;;13.90;99.90;;;;;;5008863;28;20037;-80
2022/09/13 01:48:26;;;;;;;15.02;10.02;;;13.90;99.90;;;;;;5015468;28;20037;-80
2022/09/13 01:51:42;;;;;;;16.83;10.02;;;13.90;99.90;;;;;;5014441;28;20026;-80
2022/09/13 01:54:19;;;;;;;;;;;13.90;99.90;;;;;;4957639;28;20046;-81
2022/09/13 01:56:55;;;;;;;16.60;9.48;;;13.90;99.90;;;;;;5000005;28;20027;-82
2022/09/13 01:59:46;;;;;;;17.95;10.45;;;13.90;99.90;;;;;;5016837;28;20065;-82
2022/09/13 02:02:17;;;;;;;15.25;9.85;;;13.80;99.90;;;;;;5023532;28;20093;-80
2022/09/13 02:04:53;;;;;;;14.60;9.80;;;13.80;99.90;;;;;;5023345;28;20026;-80
2022/09/13 02:07:29;;;;;;;14.27;10.10;;;13.80;99.90;;;;;;5017261;28;20030;-79
2022/09/13 02:10:01;;;;;;;14.50;10.05;;;13.70;99.90;;;;;;5000335;28;20103;-80
2022/09/13 02:12:30;;;;;;;17.02;9.27;;;13.70;99.90;;;;;;5023774;28;20057;-80
2022/09/13 02:15:44;;;;;;;15.75;9.65;;;13.70;99.90;;;;;;5018574;28;20037;-79
2022/09/13 02:18:24;;;;;;;14.55;9.65;;;13.60;99.90;;;;;;4968303;29;20044;-78
2022/09/13 02:20:53;;;;;;;12.10;9.00;;;13.70;99.90;;;;;;5032862;28;20050;-79
2022/09/13 02:23:25;;;;;;;12.38;8.68;;;13.60;99.90;;;;;;5015102;28;20041;-80
2022/09/13 02:25:54;;;;;;;12.18;8.48;;;13.60;99.90;;;;;;5029494;28;20045;-82
2022/09/13 02:28:27;;;;;;;14.10;8.13;;;13.60;99.90;;;;;;5001981;28;20033;-82
2022/09/13 02:30:55;;;;;;;12.65;8.13;;;13.60;99.90;;;;;;5015321;28;20038;-81
2022/09/13 02:33:32;;;;;;;13.40;9.00;;;13.50;99.90;;;;;;5012930;28;20022;-81
2022/09/13 02:36:08;;;;;;;12.60;8.30;;;13.50;99.90;;;;;;4997946;28;20061;-81
2022/09/13 02:38:44;;;;;;;13.52;8.25;;;13.50;99.90;;;;;;5014024;28;20022;-80
2022/09/13 02:41:20;;;;;;;13.35;9.55;;;13.40;99.90;;;;;;5012378;28;20036;-80
2022/09/13 02:43:52;;;;;;;15.52;9.00;;;13.40;99.90;;;;;;5015245;28;20033;-80
2022/09/13 02:47:00;;;;;;;14.00;8.75;;;13.40;99.90;;;;;;5015501;28;20022;-81
2022/09/13 02:49:37;;;;;;;13.18;9.30;;;13.30;99.90;;;;;;4992197;28;20066;-80
2022/09/13 02:52:30;;;;;;;15.63;8.65;;;13.30;99.90;;;;;;5026008;28;20037;-80
2022/09/13 02:55:00;;;;;;;14.05;9.23;;;13.30;99.90;;;;;;5027652;28;20030;-79
2022/09/13 02:57:32;;;;;;;12.48;8.70;;;13.30;99.90;;;;;;5025991;28;20044;-79
2022/09/13 02:59:59;;;;;;;19.25;9.82;;;13.30;99.90;;;;;;5027080;28;20034;-81
2022/09/13 03:02:31;;;;;;;14.63;8.60;;;13.30;99.90;;;;;;5026644;28;20045;-79
2022/09/13 03:04:59;;;;;;;13.40;8.77;;;13.30;99.90;;;;;;5010423;28;20029;-80
2022/09/13 03:07:25;;;;;;;15.10;9.75;;;13.20;99.90;;;;;;5009444;28;20037;-80
2022/09/13 03:09:56;;;;;;;14.27;9.52;;;13.20;99.90;;;;;;5017014;28;20026;-80
2022/09/13 03:12:28;;;;;;;15.48;9.57;;;13.20;99.90;;;;;;5024742;28;20069;-79
2022/09/13 03:15:14;;;;;;;14.45;10.32;;;13.20;99.90;;;;;;5022218;28;20691;-80
2022/09/13 03:18:06;;;;;;;14.45;9.85;;;13.10;99.90;;;;;;5023659;28;20052;-81
2022/09/13 03:20:56;;;;;;;19.25;10.23;;;13.10;99.90;;;;;;5016227;28;20462;-81
2022/09/13 03:23:45;;;;;;;18.10;10.20;;;13.10;99.90;;;;;;5014569;28;20426;-80
2022/09/13 03:26:42;;;;;;;18.92;11.20;;;13.10;99.90;;;;;;5001731;28;20038;-82
2022/09/13 03:29:34;;;;;;;22.13;11.60;;;13.10;99.90;;;;;;5018800;28;20029;-81
2022/09/13 03:32:22;;;;;;;21.42;11.80;;;13.00;99.90;;;;;;5018341;28;20026;-80
2022/09/13 03:35:08;;;;;;;19.38;11.90;;;13.00;99.90;;;;;;5018751;28;20030;-81
2022/09/13 03:38:09;;;;;;;18.52;12.10;;;13.00;99.90;;;;;;5007652;28;20038;-82
2022/09/13 03:40:48;;;;;;;17.83;10.40;;;13.00;99.90;;;;;;4989702;28;20045;-78
2022/09/13 03:43:36;;;;;;;15.45;10.55;;;13.00;99.90;;;;;;5023565;28;20026;-80
2022/09/13 03:46:20;;;;;;;15.07;10.65;;;13.00;99.90;;;;;;5032408;28;20033;-79
2022/09/13 03:48:46;;;;;;;15.18;10.93;;;12.90;99.90;;;;;;5032445;28;20014;-79
2022/09/13 03:51:13;;;;;;;19.50;10.30;;;12.90;99.90;;;;;;5038962;28;20030;-80
2022/09/13 03:53:46;;;;;;;17.52;11.32;;;12.90;99.90;;;;;;5025993;28;20033;-80
2022/09/13 03:56:14;;;;;;;16.90;11.40;;;12.90;99.90;;;;;;5019226;28;20026;-79
2022/09/13 03:58:40;;;;;;;20.27;12.48;;;12.90;99.90;;;;;;5020948;28;20018;-80
2022/09/13 04:01:06;;;;;;;16.25;10.57;;;12.90;99.90;;;;;;5020602;28;20084;-80
2022/09/13 04:03:31;;;;;;;19.88;11.27;;;12.80;99.90;;;;;;5019982;28;20022;-81
2022/09/13 04:05:57;;;;;;;19.83;10.73;;;12.80;99.90;;;;;;5003229;28;20056;-80
2022/09/13 04:08:23;;;;;;;18.10;11.70;;;12.80;99.90;;;;;;5021399;28;20025;-81
2022/09/13 04:10:51;;;;;;;16.55;11.05;;;12.70;99.90;;;;;;5027887;28;20089;-80
2022/09/13 04:13:16;;;;;;;22.02;12.60;;;12.70;99.90;;;;;;5001004;28;20058;-82
2022/09/13 04:15:42;;;;;;;19.88;11.90;;;12.70;99.90;;;;;;5019677;28;20409;-82
2022/09/13 04:18:09;;;;;;;19.85;11.57;;;12.70;99.90;;;;;;5019808;28;20025;-80
2022/09/13 04:20:35;;;;;;;20.92;13.20;;;12.60;99.90;;;;;;5019194;28;20038;-80
2022/09/13 04:23:00;;;;;;;21.10;11.85;;;12.70;99.90;;;;;;5020953;28;20032;-80
2022/09/13 04:25:26;;;;;;;33.95;18.35;;;12.60;99.90;;;;;;5021087;28;20021;-81
2022/09/13 04:27:58;;;;;;;34.28;18.77;;;12.60;99.90;;;;;;5021839;28;20021;-82
2022/09/13 04:30:28;;;;;;;38.78;21.02;;;12.60;99.90;;;;;;5002818;28;20026;-82
2022/09/13 04:32:57;;;;;;;20.92;12.40;;;12.60;99.90;;;;;;5020848;28;20026;-80
2022/09/13 04:35:23;;;;;;;25.75;13.90;;;12.60;99.90;;;;;;5021619;28;20064;-79
2022/09/13 04:37:48;;;;;;;21.08;12.98;;;12.50;99.90;;;;;;5026399;28;20030;-81
2022/09/13 04:40:14;;;;;;;20.02;12.80;;;12.60;99.90;;;;;;5032511;28;20044;-80
2022/09/13 04:42:42;;;;;;;21.10;12.27;;;12.60;99.90;;;;;;5020120;28;20034;-81
2022/09/13 04:45:09;;;;;;;23.85;12.18;;;12.60;99.90;;;;;;5016859;28;20026;-79
2022/09/13 04:47:35;;;;;;;26.67;13.30;;;12.60;99.90;;;;;;5026749;28;20021;-81
2022/09/13 04:50:00;;;;;;;25.65;13.38;;;12.60;99.90;;;;;;5023118;28;20033;-81
2022/09/13 04:52:26;;;;;;;21.33;12.02;;;12.60;99.90;;;;;;5030196;28;20132;-82
2022/09/13 04:54:52;;;;;;;23.25;11.73;;;12.70;99.90;;;;;;5023187;28;20048;-80
2022/09/13 04:57:18;;;;;;;23.67;12.77;;;12.70;99.90;;;;;;5034181;28;20060;-82
2022/09/13 04:59:44;;;;;;;20.20;11.63;;;12.70;99.90;;;;;;5019263;28;20469;-79
2022/09/13 05:02:10;;;;;;;20.42;11.18;;;12.70;99.90;;;;;;5019852;28;20057;-79
2022/09/13 05:04:40;;;;;;;20.63;11.32;;;12.80;99.90;;;;;;5019427;28;20623;-93
2022/09/13 05:07:06;;;;;;;20.00;11.13;;;12.80;99.90;;;;;;5003147;28;20054;-82
2022/09/13 05:09:32;;;;;;;15.43;11.00;;;12.90;99.90;;;;;;5001423;28;20131;-83
2022/09/13 05:11:58;;;;;;;14.93;10.32;;;12.90;99.90;;;;;;5020193;28;20030;-83
2022/09/13 05:14:24;;;;;;;15.80;9.65;;;12.90;99.90;;;;;;5021303;28;20021;-81
2022/09/13 05:16:50;;;;;;;15.65;9.75;;;13.00;99.90;;;;;;5017537;28;20047;-82
2022/09/13 05:19:16;;;;;;;17.58;10.30;;;13.10;99.90;;;;;;5011694;28;20098;-84
2022/09/13 05:21:42;;;;;;;14.32;10.15;;;13.10;99.90;;;;;;5015234;28;20027;-81
2022/09/13 05:24:08;;;;;;;14.02;9.82;;;13.20;99.90;;;;;;5095578;22;20055;-87
2022/09/13 05:26:34;;;;;;;14.60;9.60;;;13.20;99.90;;;;;;5038206;28;20024;-88
2022/09/13 05:29:01;;;;;;;16.13;10.48;;;13.30;99.90;;;;;;5061850;28;20051;-88
2022/09/13 05:31:33;;;;;;;16.00;10.30;;;13.30;99.90;;;;;;5069262;28;20044;-89
2022/09/13 05:34:02;;;;;;;18.38;10.23;;;13.40;99.90;;;;;;5064419;28;20031;-87
2022/09/13 05:36:28;;;;;;;18.52;10.73;;;13.40;99.90;;;;;;5063604;28;20021;-85
2022/09/13 05:38:56;;;;;;;19.55;10.77;;;13.50;99.90;;;;;;5055325;28;20093;-87
2022/09/13 05:41:22;;;;;;;20.25;10.45;;;13.60;99.90;;;;;;5061887;28;20478;-86
2022/09/13 05:43:48;;;;;;;19.45;10.98;;;13.70;99.90;;;;;;5054173;28;20014;-88
2022/09/13 05:46:16;;;;;;;22.85;10.80;;;13.70;99.90;;;;;;5033414;28;20428;-87
2022/09/13 05:48:42;;;;;;;20.65;10.93;;;13.80;99.90;;;;;;5051910;28;20048;-85
2022/09/13 05:51:11;;;;;;;15.70;10.13;;;13.90;99.90;;;;;;5051461;28;20025;-85
2022/09/13 05:53:39;;;;;;;24.27;10.77;;;14.00;99.90;;;;;;5048447;28;20034;-86
2022/09/13 05:56:11;;;;;;;23.13;11.68;;;14.00;99.90;;;;;;5047792;28;20030;-85
2022/09/13 05:58:47;;;;;;;15.00;9.63;;;14.10;99.90;;;;;;5047323;28;20029;-88
2022/09/13 06:01:14;;;;;;;16.52;10.77;;;14.20;99.90;;;;;;5048467;28;20207;-86
2022/09/13 06:03:40;;;;;;;18.50;9.70;;;14.30;99.90;;;;;;5049435;28;20064;-85
2022/09/13 06:06:07;;;;;;;17.50;10.05;;;14.40;99.90;;;;;;5050197;28;20056;-84
2022/09/13 06:08:34;;;;;;;17.13;10.50;;;14.50;99.90;;;;;;5068444;28;20017;-85
2022/09/13 06:11:03;;;;;;;14.88;9.85;;;14.60;99.90;;;;;;5058914;28;20017;-86
2022/09/13 06:13:29;;;;;;;20.85;11.20;;;14.70;99.90;;;;;;5072198;28;20024;-83
2022/09/13 06:15:57;;;;;;;15.23;10.13;;;14.80;99.90;;;;;;5073101;28;20033;-85
2022/09/13 06:18:26;;;;;;;16.13;9.63;;;14.90;99.90;;;;;;5071190;28;20043;-86
2022/09/13 06:21:01;;;;;;;18.02;11.73;;;15.00;99.90;;;;;;5069940;28;20056;-83
2022/09/13 06:23:28;;;;;;;19.15;10.95;;;15.20;99.90;;;;;;5070103;28;20029;-85
2022/09/13 06:26:17;;;;;;;18.55;10.90;;;15.10;99.90;;;;;;5070361;28;20104;-86
2022/09/13 06:28:47;;;;;;;16.10;9.18;;;15.20;99.90;;;;;;5035075;28;20034;-85
2022/09/13 06:31:15;;;;;;;26.77;11.40;;;15.30;99.90;;;;;;5073065;28;20063;-83
2022/09/13 06:33:42;;;;;;;15.38;10.43;;;15.20;99.90;;;;;;5076309;28;20041;-84
2022/09/13 06:36:10;;;;;;;19.30;10.57;;;15.30;99.90;;;;;;5076674;28;20076;-85
2022/09/13 06:38:38;;;;;;;20.77;10.35;;;15.40;99.90;;;;;;5057988;28;20021;-85
2022/09/13 06:41:17;;;;;;;19.98;9.98;;;15.50;99.90;;;;;;5057441;28;20052;-83
2022/09/13 06:43:44;;;;;;;19.30;10.77;;;15.60;99.90;;;;;;5051198;28;20041;-87
2022/09/13 06:46:12;;;;;;;17.30;11.68;;;15.80;99.90;;;;;;5069015;28;20019;-86
2022/09/13 06:48:41;;;;;;;15.65;10.75;;;16.00;99.90;;;;;;5069741;28;20060;-85
2022/09/13 06:51:10;;;;;;;16.08;10.88;;;16.00;99.90;;;;;;5049935;28;20031;-86
2022/09/13 06:53:36;;;;;;;19.38;11.40;;;16.10;99.90;;;;;;5071796;28;20021;-83
2022/09/13 06:56:16;;;;;;;19.92;10.82;;;16.20;99.90;;;;;;5073751;28;20017;-85
2022/09/13 06:58:44;;;;;;;16.33;10.35;;;16.30;99.90;;;;;;5074418;28;20025;-83
2022/09/13 07:01:22;;;;;;;17.25;10.10;;;16.30;99.90;;;;;;5057139;28;20029;-89
2022/09/13 07:04:18;;;;;;;29.80;12.20;;;16.40;99.90;;;;;;5073733;28;20036;-87
2022/09/13 07:06:48;;;;;;;26.08;11.45;;;16.50;99.90;;;;;;5072838;28;20063;-87
2022/09/13 07:09:20;;;;;;;22.42;10.35;;;16.60;99.90;;;;;;5076254;28;20504;-86
2022/09/13 07:11:47;;;;;;;17.00;10.13;;;16.60;99.90;;;;;;5056589;28;20029;-84
2022/09/13 07:14:15;;;;;;;20.88;11.10;;;16.60;99.90;;;;;;5067331;28;20049;-87
2022/09/13 07:16:42;;;;;;;20.65;11.68;;;16.70;99.90;;;;;;5049581;28;20029;-85
2022/09/13 07:19:16;;;;;;;26.00;11.52;;;16.70;99.90;;;;;;5048130;28;20030;-88
2022/09/13 07:21:42;;;;;;;24.05;11.23;;;16.70;99.90;;;;;;5042983;28;20093;-84
2022/09/13 07:24:08;;;;;;;19.20;9.85;;;16.70;99.90;;;;;;5042679;28;20045;-84
2022/09/13 07:26:35;;;;;;;16.92;9.68;;;16.80;99.90;;;;;;5038016;28;20050;-85
2022/09/13 07:29:04;;;;;;;19.65;9.95;;;16.90;99.90;;;;;;5052337;28;20034;-84
2022/09/13 07:31:41;;;;;;;12.18;8.05;;;17.00;99.90;;;;;;5049430;28;20033;-86
2022/09/13 07:34:15;;;;;;;17.95;9.38;;;17.10;99.90;;;;;;5024864;28;20038;-86
2022/09/13 07:36:45;;;;;;;15.55;9.23;;;17.10;99.90;;;;;;5032886;28;20040;-87
2022/09/13 07:39:12;;;;;;;15.93;8.85;;;17.10;99.90;;;;;;5029041;28;20076;-84
2022/09/13 07:41:38;;;;;;;20.88;8.75;;;17.10;99.90;;;;;;5051151;28;20017;-84
2022/09/13 07:44:06;;;;;;;15.35;8.07;;;17.20;99.90;;;;;;5052530;28;20105;-85
2022/09/13 07:46:40;;;;;;;14.05;7.88;;;17.30;99.90;;;;;;5031134;28;20082;-86
2022/09/13 07:49:06;;;;;;;18.27;7.43;;;17.40;99.90;;;;;;5053976;28;20037;-82
2022/09/13 07:51:34;;;;;;;19.02;7.90;;;17.50;99.90;;;;;;5060161;28;20097;-84
2022/09/13 07:54:03;;;;;;;14.55;7.65;;;17.50;99.90;;;;;;5055723;28;20030;-85
2022/09/13 07:56:34;;;;;;;15.48;7.63;;;17.60;99.90;;;;;;5050304;28;20085;-86
2022/09/13 07:59:03;;;;;;;12.63;6.97;;;17.80;99.90;;;;;;5030329;28;20359;-87
2022/09/13 08:01:33;;;;;;;14.38;6.50;;;17.90;99.90;;;;;;5049553;28;20052;-89
2022/09/13 08:04:02;;;;;;;12.68;7.00;;;17.80;99.90;;;;;;5047955;28;20081;-88
2022/09/13 08:06:30;;;;;;;11.68;6.88;;;17.80;99.90;;;;;;5028409;28;20025;-86
2022/09/13 08:08:57;;;;;;;9.73;6.15;;;17.90;99.90;;;;;;5028928;28;20029;-85
2022/09/13 08:11:28;;;;;;;15.73;6.68;;;18.10;99.90;;;;;;5047848;28;20037;-88
2022/09/13 08:13:54;;;;;;;13.40;6.50;;;18.10;99.90;;;;;;5030726;28;20029;-85
2022/09/13 08:16:22;;;;;;;13.90;7.00;;;18.20;99.90;;;;;;5048419;28;20026;-88
2022/09/13 08:18:50;;;;;;;10.60;6.82;;;18.30;99.90;;;;;;5031731;28;20509;-87
2022/09/13 08:21:16;;;;;;;16.70;6.80;;;18.50;99.90;;;;;;5053423;28;20452;-84
2022/09/13 08:23:42;;;;;;;12.88;5.95;;;18.60;99.90;;;;;;5054866;28;20034;-86
2022/09/13 08:26:09;;;;;;;10.57;6.18;;;18.90;99.90;;;;;;5054046;28;20029;-88
2022/09/13 08:28:37;;;;;;;8.85;4.60;;;19.00;99.90;;;;;;5051375;28;20120;-86
2022/09/13 08:31:08;;;;;;;11.15;5.60;;;19.00;99.90;;;;;;5031257;28;20133;-84
2022/09/13 08:33:35;;;;;;;9.07;6.60;;;19.10;99.90;;;;;;5049461;28;20234;-87
2022/09/13 08:36:02;;;;;;;14.93;6.80;;;19.30;99.90;;;;;;5017268;28;20021;-85
2022/09/13 08:38:29;;;;;;;10.15;6.47;;;19.60;99.90;;;;;;5049771;28;20030;-85
2022/09/13 08:41:23;;;;;;;16.58;6.53;;;19.70;99.90;;;;;;5047131;28;20101;-84
2022/09/13 08:44:17;;;;;;;15.50;6.45;;;19.80;99.90;;;;;;5016304;28;20037;-86
2022/09/13 08:46:46;;;;;;;9.60;5.40;;;19.90;99.90;;;;;;5009872;28;20068;-84
2022/09/13 08:49:24;;;;;;;15.68;5.80;;;19.90;99.90;;;;;;5045638;28;20025;-88
2022/09/13 08:51:54;;;;;;;12.13;5.88;;;20.10;99.90;;;;;;5051444;28;20025;-85
2022/09/13 08:54:21;;;;;;;11.23;6.22;;;20.20;99.90;;;;;;5048679;28;20053;-87
2022/09/13 08:57:16;;;;;;;13.15;5.47;;;20.50;99.90;;;;;;5067510;28;20028;-87
2022/09/13 08:59:53;;;;;;;11.32;4.20;;;20.60;99.90;;;;;;5074297;28;20044;-84
2022/09/13 09:02:22;;;;;;;7.35;4.30;;;20.60;99.90;;;;;;5078588;28;20044;-83
2022/09/13 09:05:15;;;;;;;7.00;3.97;;;20.60;99.90;;;;;;5086307;28;20033;-82
2022/09/13 09:07:51;;;;;;;15.18;4.40;;;20.80;99.90;;;;;;5081348;28;20050;-81
2022/09/13 09:10:40;;;;;;;13.20;4.25;;;21.20;99.90;;;;;;5094156;28;20029;-85
2022/09/13 09:13:23;;;;;;;10.35;4.07;;;21.80;99.90;;;;;;5086402;28;20020;-84
2022/09/13 09:15:53;;;;;;;6.80;4.50;;;22.60;99.90;;;;;;5077872;28;20032;-87
2022/09/13 09:18:28;;;;;;;10.23;4.43;;;23.40;99.90;;;;;;5094143;28;20043;-84
2022/09/13 09:20:58;;;;;;;;;;;23.90;99.90;;;;;;5076855;28;20040;-88
2022/09/13 09:23:48;;;;;;;10.25;3.85;;;24.90;98.80;;;;;;5073623;28;19915;-84
2022/09/13 09:26:16;;;;;;;7.63;4.10;;;26.10;96.70;;;;;;5073364;28;20032;-84
2022/09/13 09:28:59;;;;;;;8.25;3.58;;;27.40;94.30;;;;;;5056534;28;20029;-84
2022/09/13 09:31:28;;;;;;;8.15;3.50;;;28.00;92.60;;;;;;5057689;28;20053;-84
2022/09/13 09:34:02;;;;;;;10.27;3.13;;;29.20;90.80;;;;;;5074645;28;20029;-84
2022/09/13 09:36:36;;;;;;;7.05;3.50;;;30.50;88.40;;;;;;5057209;28;20025;-83
2022/09/13 09:39:04;;;;;;;12.07;3.67;;;31.70;82.00;;;;;;5052867;28;20072;-86
2022/09/13 09:41:33;;;;;;;4.57;3.00;;;32.00;78.80;;;;;;5052780;28;20547;-84
2022/09/13 09:44:19;;;;;;;11.25;3.55;;;31.30;78.10;;;;;;5069347;28;20024;-85
2022/09/13 09:46:55;;;;;;;4.90;3.05;;;31.90;76.50;;;;;;5049561;28;20094;-83
2022/09/13 09:52:21;;;;;;;8.20;2.72;;;32.70;73.60;;;;;;5069729;28;20024;-84
2022/09/13 09:54:48;;;;;;;4.68;2.85;;;33.40;70.90;;;;;;5072400;28;20021;-84
2022/09/13 09:57:17;;;;;;;4.80;2.70;;;33.00;70.60;;;;;;5075070;28;20084;-81
2022/09/13 09:59:43;;;;;;;4.80;3.22;;;32.40;70.70;;;;;;5075919;28;20044;-82
2022/09/13 10:02:21;;;;;;;4.50;3.03;;;32.10;70.80;;;;;;5059013;28;20013;-84
2022/09/13 10:04:59;;;;;;;12.82;3.05;;;32.10;70.40;;;;;;5059887;28;20051;-81
2022/09/13 10:07:31;;;;;;;8.75;3.22;;;32.50;70.30;;;;;;5085068;28;20025;-81
2022/09/13 10:10:02;;;;;;;8.02;4.25;;;32.80;68.50;;;;;;5076747;28;20079;-82
2022/09/13 10:12:32;;;;;;;6.32;3.03;;;32.60;68.40;;;;;;5077262;28;20043;-82
2022/09/13 10:15:16;;;;;;;6.57;3.88;;;32.90;68.20;;;;;;5077207;28;20041;-83
2022/09/13 10:18:04;;;;;;;4.65;3.10;;;33.70;67.40;;;;;;5077156;28;20020;-84
2022/09/13 10:20:31;;;;;;;8.65;3.10;;;34.20;66.40;;;;;;5077200;28;20025;-83
2022/09/13 10:23:13;;;;;;;6.28;2.90;;;34.50;66.00;;;;;;5040648;28;20041;-85
2022/09/13 10:25:40;;;;;;;9.48;5.25;;;34.50;64.40;;;;;;5069201;28;20489;-85
2022/09/13 10:28:13;;;;;;;8.82;5.25;;;34.80;64.50;;;;;;5070922;28;20029;-83
2022/09/13 10:30:52;;;;;;;4.88;2.70;;;34.80;64.20;;;;;;5055348;28;20032;-84
2022/09/13 10:33:32;;;;;;;8.13;3.08;;;35.40;63.60;;;;;;5072264;28;20029;-84
2022/09/13 10:36:02;;;;;;;4.18;2.60;;;35.20;63.10;;;;;;5066406;28;20025;-86
2022/09/13 10:38:39;;;;;;;3.42;2.60;;;34.60;63.40;;;;;;5052325;28;20040;-83
2022/09/13 10:41:18;;;;;;;5.10;2.78;;;34.00;64.50;;;;;;5074246;28;20037;-86
2022/09/13 10:43:44;;;;;;;7.65;2.70;;;33.70;64.70;;;;;;5072593;28;20063;-87
2022/09/13 10:46:20;;;;;;;5.05;2.50;;;34.30;64.00;;;;;;5056461;28;20029;-84
2022/09/13 10:48:54;;;;;;;8.13;2.90;;;35.30;63.30;;;;;;5074288;28;20012;-84
2022/09/13 10:51:26;;;;;;;7.15;3.33;;;35.60;62.50;;;;;;5074527;28;20045;-85
2022/09/13 10:54:15;;;;;;;33.70;5.45;;;35.70;61.80;;;;;;5070559;28;20033;-87
2022/09/13 10:56:44;;;;;;;3.28;2.60;;;36.90;60.60;;;;;;5071536;28;20124;-85
2022/09/13 10:59:28;;;;;;;24.20;4.13;;;37.10;59.50;;;;;;5069020;28;20072;-84
2022/09/13 11:02:05;;;;;;;6.45;3.33;;;36.50;59.80;;;;;;5071248;28;20032;-84
2022/09/13 11:04:39;;;;;;;8.10;3.17;;;36.30;59.80;;;;;;5070800;28;20033;-88
2022/09/13 11:07:43;;;;;;;6.28;3.25;;;35.60;60.30;;;;;;5071184;28;20029;-85
2022/09/13 11:10:23;;;;;;;6.45;3.03;;;35.70;60.40;;;;;;5054292;28;20044;-86
2022/09/13 11:13:06;;;;;;;3.38;2.55;;;35.40;59.80;;;;;;5074108;28;20028;-84
2022/09/13 11:15:54;;;;;;;4.35;2.65;;;35.80;59.90;;;;;;5065371;28;20034;-85
2022/09/13 11:18:56;;;;;;;5.15;2.30;;;37.00;59.30;;;;;;5053099;28;20033;-86
2022/09/13 11:21:28;;;;;;;3.47;2.60;;;37.60;57.80;;;;;;5052971;28;20029;-86
2022/09/13 11:24:09;;;;;;;2.42;2.08;;;38.00;57.20;;;;;;5080961;23;20049;-85
2022/09/13 11:26:46;;;;;;;5.43;2.92;;;38.10;56.90;;;;;;5054937;28;20055;-84
2022/09/13 11:29:21;;;;;;;5.38;2.30;;;38.00;56.30;;;;;;5073868;28;20035;-83
2022/09/13 11:31:56;;;;;;;5.53;3.22;;;37.80;56.10;;;;;;5076688;28;20021;-85
2022/09/13 11:34:38;;;;;;;5.57;2.85;;;38.20;55.50;;;;;;5075042;28;20028;-85
2022/09/13 11:37:32;;;;;;;3.85;2.53;;;39.10;54.80;;;;;;5041668;28;20088;-85
2022/09/13 11:40:22;;;;;;;3.60;2.30;;;39.30;53.40;;;;;;5075379;28;20025;-85
2022/09/13 11:43:23;;;;;;;4.32;2.40;;;39.20;54.00;;;;;;5061125;28;20024;-85
2022/09/13 11:46:05;;;;;;;4.00;2.50;;;39.10;53.10;;;;;;5061048;28;20032;-85
2022/09/13 11:48:43;;;;;;;3.33;2.15;;;38.60;52.90;;;;;;5077737;28;20037;-84
2022/09/13 11:52:03;;;;;;;6.18;2.58;;;38.80;52.70;;;;;;5076920;28;20032;-86
2022/09/13 11:55:15;;;;;;;3.53;2.38;;;39.10;52.20;;;;;;4974332;28;20055;-84
2022/09/13 11:57:49;;;;;;;8.02;2.80;;;39.20;51.90;;;;;;5077085;28;20048;-85
2022/09/13 12:00:39;;;;;;;4.35;2.95;;;38.90;51.40;;;;;;5077141;28;20059;-85
2022/09/13 12:03:20;;;;;;;5.30;2.70;;;38.70;52.10;;;;;;5075672;28;20056;-86
2022/09/13 12:06:04;;;;;;;6.90;2.63;;;38.70;51.70;;;;;;5075964;28;20037;-85
2022/09/13 12:08:31;;;;;;;6.18;2.42;;;39.00;51.90;;;;;;5073288;28;20032;-85
2022/09/13 12:11:03;;;;;;;5.88;2.60;;;39.40;51.40;;;;;;5070304;28;20044;-84
2022/09/13 12:13:34;;;;;;;3.92;2.47;;;39.60;51.10;;;;;;5070636;28;20029;-84
2022/09/13 12:16:16;;;;;;;2.90;2.58;;;39.70;50.80;;;;;;5051573;28;20055;-84
2022/09/13 12:18:54;;;;;;;5.18;2.72;;;39.90;50.60;;;;;;5073853;28;20028;-83
2022/09/13 12:21:24;;;;;;;6.80;2.42;;;40.00;50.40;;;;;;5070054;28;20092;-86
2022/09/13 12:24:20;;;;;;;3.33;2.30;;;39.30;50.60;;;;;;5069660;28;20033;-85
2022/09/13 12:26:51;;;;;;;2.85;2.55;;;38.90;50.90;;;;;;5075652;28;20067;-85
2022/09/13 12:29:43;;;;;;;4.38;2.65;;;38.30;51.70;;;;;;5050996;28;20093;-86
2022/09/13 12:32:09;;;;;;;7.97;2.90;;;38.20;51.60;;;;;;5058980;28;20017;-85
2022/09/13 12:34:53;;;;;;;3.95;2.97;;;37.40;52.10;;;;;;5051448;28;20021;-86
2022/09/13 12:37:41;;;;;;;4.15;2.95;;;37.60;52.30;;;;;;5049509;28;20033;-84
2022/09/13 12:40:25;;;;;;;3.08;2.45;;;37.30;52.30;;;;;;5054512;28;20029;-84
2022/09/13 12:43:10;;;;;;;3.60;2.80;;;37.40;52.10;;;;;;5055144;28;20026;-84
2022/09/13 12:45:36;;;;;;;4.40;3.22;;;37.50;52.10;;;;;;5054922;28;20059;-85
2022/09/13 12:48:33;;;;;;;6.68;3.00;;;37.60;51.90;;;;;;5053995;28;20034;-85
2022/09/13 12:51:37;;;;;;;6.10;2.65;;;37.80;52.00;;;;;;5054122;28;20042;-84
2022/09/13 12:54:30;;;;;;;6.68;2.53;;;38.70;51.20;;;;;;5063789;28;20033;-86
2022/09/13 12:57:32;;;;;;;4.18;2.90;;;39.20;50.60;;;;;;5073560;28;20063;-86
2022/09/13 13:00:20;;;;;;;3.97;2.60;;;39.00;50.40;;;;;;5049480;28;20056;-86
2022/09/13 13:02:48;;;;;;;3.35;2.28;;;39.60;50.20;;;;;;5067520;28;20033;-87
2022/09/13 13:05:23;;;;;;;5.95;3.00;;;40.60;49.50;;;;;;5069046;28;20025;-85
2022/09/13 13:08:18;;;;;;;5.35;2.80;;;40.70;48.90;;;;;;5072702;28;20136;-85
2022/09/13 13:10:58;;;;;;;7.35;3.10;;;40.20;49.20;;;;;;5058123;28;20040;-85
2022/09/13 13:13:32;;;;;;;5.20;2.78;;;39.30;49.60;;;;;;5072639;28;20036;-87
2022/09/13 13:16:00;;;;;;;;;;;39.60;49.90;;;;;;5046141;28;20049;-86
2022/09/13 13:18:47;;;;;;;5.15;2.67;;;39.90;49.20;;;;;;5063769;28;19968;-86